Time;durP1;ratioP1;P1;durP2;ratioP2;P2;SDS_P1;SDS_P2;PMS_P1;PMS_P2;Temp;Humidity;BMP_temperature;BMP_pressure;BME280_temperature;BME280_humidity;BME280_pressure;Samples;Min_cycle;Max_cycle;Signal;HPM_P1;HPM_P2
2022/11/08 00:03:20;;;;;;;14.23;11.85;;;21.70;99.90;;;;;;6182380;28;87595;-68
2022/11/08 00:16:22;;;;;;;13.15;11.80;;;21.70;99.90;;;;;;6173041;28;87328;-68
2022/11/08 00:19:24;;;;;;;14.00;12.50;;;21.70;99.90;;;;;;6183167;28;89426;-68
2022/11/08 00:22:30;;;;;;;13.00;11.70;;;21.70;99.90;;;;;;6180673;28;89269;-67
2022/11/08 00:25:32;;;;;;;12.90;11.55;;;21.70;99.90;;;;;;6181226;28;89492;-68
2022/11/08 00:28:34;;;;;;;13.13;11.82;;;21.70;99.90;;;;;;6180711;28;89167;-68
2022/11/08 00:31:37;;;;;;;12.98;11.57;;;21.60;99.90;;;;;;6181998;28;88492;-67
2022/11/08 00:34:39;;;;;;;13.88;12.43;;;21.60;99.90;;;;;;6180623;28;88256;-68
2022/11/08 00:37:42;;;;;;;13.40;12.00;;;21.70;99.90;;;;;;6182188;28;89526;-67
2022/11/08 00:40:44;;;;;;;14.15;12.50;;;21.70;99.90;;;;;;6180622;28;90686;-67
2022/11/08 00:43:46;;;;;;;13.63;12.23;;;21.60;99.90;;;;;;6172914;28;89252;-67
2022/11/08 00:46:50;;;;;;;13.23;11.93;;;21.70;99.90;;;;;;6179689;28;89380;-67
2022/11/08 00:49:52;;;;;;;13.63;12.13;;;21.70;99.90;;;;;;6181732;28;89550;-68
2022/11/08 00:52:54;;;;;;;13.48;12.07;;;21.60;99.90;;;;;;6180902;28;89175;-67
2022/11/08 00:55:59;;;;;;;13.45;12.05;;;21.60;99.90;;;;;;6182269;28;89329;-67
2022/11/08 00:59:01;;;;;;;14.00;11.75;;;21.60;99.90;;;;;;6177641;28;89064;-67
2022/11/08 01:02:05;;;;;;;13.57;12.05;;;21.60;99.90;;;;;;6181124;28;88562;-67
2022/11/08 01:05:07;;;;;;;13.10;11.80;;;21.60;99.90;;;;;;6181149;28;89536;-68
2022/11/08 01:08:10;;;;;;;13.30;11.90;;;21.60;99.90;;;;;;6180888;28;89612;-67
2022/11/08 01:11:14;;;;;;;13.25;11.85;;;21.60;99.90;;;;;;6180138;28;90519;-67
2022/11/08 01:14:16;;;;;;;13.35;11.68;;;21.60;99.90;;;;;;6178907;28;89167;-67
2022/11/08 01:17:20;;;;;;;13.45;12.05;;;21.60;99.90;;;;;;6181746;28;89421;-67
2022/11/08 01:20:22;;;;;;;13.27;11.88;;;21.60;99.90;;;;;;6180991;28;89359;-68
2022/11/08 01:23:24;;;;;;;13.13;11.73;;;21.60;99.90;;;;;;6180786;28;89075;-67
2022/11/08 01:26:28;;;;;;;13.07;11.70;;;21.60;99.90;;;;;;6175009;28;89082;-68
2022/11/08 01:29:30;;;;;;;12.70;11.40;;;21.60;99.90;;;;;;6173971;28;89665;-67
2022/11/08 01:32:33;;;;;;;13.48;11.50;;;21.60;99.90;;;;;;6181399;28;88647;-67
2022/11/08 01:35:37;;;;;;;14.10;11.90;;;21.60;99.90;;;;;;6179472;28;88158;-67
2022/11/08 01:38:39;;;;;;;14.32;12.15;;;21.60;99.90;;;;;;6179466;28;89317;-67
2022/11/08 01:41:41;;;;;;;13.02;11.55;;;21.60;99.90;;;;;;6180120;28;90261;-68
2022/11/08 01:44:59;;;;;;;12.30;11.00;;;21.60;99.90;;;;;;6179596;28;89343;-67
2022/11/08 01:48:03;;;;;;;12.55;11.23;;;21.50;99.90;;;;;;6179184;28;89163;-67
2022/11/08 01:51:09;;;;;;;13.25;11.82;;;21.50;99.90;;;;;;6179788;28;89218;-67
2022/11/08 01:54:16;;;;;;;12.68;11.27;;;21.50;99.90;;;;;;6189712;28;89253;-67
2022/11/08 01:57:23;;;;;;;12.10;10.90;;;21.50;99.90;;;;;;6177883;28;89403;-68
2022/11/08 02:00:25;;;;;;;12.10;10.90;;;21.50;99.90;;;;;;6180577;28;89192;-65
2022/11/08 02:03:32;;;;;;;12.18;10.98;;;21.50;99.90;;;;;;6179431;28;88454;-65
2022/11/08 02:06:37;;;;;;;12.25;11.05;;;21.50;99.90;;;;;;6177622;28;89383;-65
2022/11/08 02:09:42;;;;;;;12.13;10.93;;;21.50;99.90;;;;;;6180061;28;89486;-65
2022/11/08 02:12:45;;;;;;;12.95;11.60;;;21.50;99.90;;;;;;6178311;28;90478;-65
2022/11/08 02:15:47;;;;;;;12.23;11.00;;;21.50;99.90;;;;;;6180286;28;89140;-65
2022/11/08 02:18:50;;;;;;;12.45;11.15;;;21.50;99.90;;;;;;6179628;28;89461;-67
2022/11/08 02:21:57;;;;;;;12.32;11.10;;;21.50;99.90;;;;;;6180163;28;89154;-67
2022/11/08 02:25:00;;;;;;;12.63;11.23;;;21.50;99.90;;;;;;6179968;28;89208;-67
2022/11/08 02:28:03;;;;;;;11.63;10.43;;;21.50;99.90;;;;;;6178037;28;89248;-67
2022/11/08 02:31:07;;;;;;;15.55;12.20;;;21.50;99.90;;;;;;6177067;28;89219;-67
2022/11/08 02:34:09;;;;;;;12.50;11.20;;;21.50;99.90;;;;;;6170980;28;88384;-67
2022/11/08 02:37:12;;;;;;;12.52;11.23;;;21.50;99.90;;;;;;6175794;28;89271;-67
2022/11/08 02:40:15;;;;;;;13.13;11.73;;;21.50;99.90;;;;;;6178710;28;88044;-67
2022/11/08 02:43:18;;;;;;;12.98;11.50;;;21.50;99.90;;;;;;6178978;28;90431;-67
2022/11/08 02:46:20;;;;;;;11.65;10.45;;;21.50;99.90;;;;;;6180685;28;89182;-67
2022/11/08 02:49:22;;;;;;;13.13;11.77;;;21.40;99.90;;;;;;6180487;28;87958;-67
2022/11/08 02:52:24;;;;;;;12.20;10.98;;;21.50;99.90;;;;;;6177927;28;88977;-67
2022/11/08 02:55:28;;;;;;;12.15;10.95;;;21.50;99.90;;;;;;6179091;28;88986;-67
2022/11/08 02:58:30;;;;;;;12.52;11.23;;;21.40;99.90;;;;;;6178492;28;89625;-67
2022/11/08 03:01:32;;;;;;;12.05;10.85;;;21.40;99.90;;;;;;6179895;28;88352;-67
2022/11/08 03:04:34;;;;;;;12.63;11.32;;;21.40;99.90;;;;;;6179760;28;88512;-67
2022/11/08 03:07:36;;;;;;;13.23;11.88;;;21.40;99.90;;;;;;6180142;28;89109;-67
2022/11/08 03:10:40;;;;;;;12.95;11.65;;;21.40;99.90;;;;;;6178243;28;89600;-67
2022/11/08 03:13:42;;;;;;;13.10;11.77;;;21.40;99.90;;;;;;6178163;28;88898;-68
2022/11/08 03:16:44;;;;;;;12.43;11.13;;;21.40;99.90;;;;;;6179857;28;87967;-67
2022/11/08 03:19:46;;;;;;;12.95;11.65;;;21.40;99.90;;;;;;6177890;28;89159;-68
2022/11/08 03:22:48;;;;;;;12.85;11.50;;;21.40;99.90;;;;;;6179672;28;88177;-68
2022/11/08 03:25:51;;;;;;;12.35;11.05;;;21.40;99.90;;;;;;6179628;28;88426;-68
2022/11/08 03:28:53;;;;;;;13.10;11.70;;;21.40;99.90;;;;;;6181038;28;89344;-67
2022/11/08 03:31:55;;;;;;;13.02;11.73;;;21.40;99.90;;;;;;6183400;28;89086;-68
2022/11/08 03:34:58;;;;;;;12.77;11.48;;;21.40;99.90;;;;;;6183764;28;88346;-68
2022/11/08 03:38:00;;;;;;;13.13;11.82;;;21.40;99.90;;;;;;6180887;28;89442;-68
2022/11/08 03:41:04;;;;;;;12.57;11.32;;;21.40;99.90;;;;;;6181511;28;89316;-67
2022/11/08 03:44:06;;;;;;;12.20;11.00;;;21.40;99.90;;;;;;6182098;28;90136;-68
2022/11/08 03:47:09;;;;;;;12.32;11.13;;;21.40;99.90;;;;;;6183447;28;89584;-68
2022/11/08 03:50:13;;;;;;;12.30;11.10;;;21.30;99.90;;;;;;6173540;28;89237;-67
2022/11/08 03:53:15;;;;;;;12.30;11.07;;;21.40;99.90;;;;;;6182122;28;89260;-67
2022/11/08 03:56:18;;;;;;;12.15;10.95;;;21.30;99.90;;;;;;6181501;28;89013;-67
2022/11/08 03:59:20;;;;;;;12.40;11.10;;;21.40;99.90;;;;;;6182417;28;89122;-68
2022/11/08 04:02:22;;;;;;;13.43;11.88;;;21.40;99.90;;;;;;6182590;28;89082;-67
2022/11/08 04:05:24;;;;;;;12.05;10.85;;;21.30;99.90;;;;;;6182654;28;88798;-68
2022/11/08 04:08:26;;;;;;;11.75;10.55;;;21.40;99.90;;;;;;6183168;28;89003;-67
2022/11/08 04:21:28;;;;;;;16.25;12.60;;;21.30;99.90;;;;;;6180384;28;89821;-68
2022/11/08 04:24:30;;;;;;;13.00;11.63;;;21.30;99.90;;;;;;6182522;28;89427;-67
2022/11/08 04:27:33;;;;;;;12.43;11.13;;;21.30;99.90;;;;;;6179456;28;89264;-67
2022/11/08 04:30:36;;;;;;;12.00;10.80;;;21.30;99.90;;;;;;6181043;28;89122;-67
2022/11/08 04:33:38;;;;;;;11.30;10.15;;;21.30;99.90;;;;;;6180013;28;89276;-67
2022/11/08 04:36:40;;;;;;;11.48;10.38;;;21.30;99.90;;;;;;6169607;28;88382;-67
2022/11/08 04:39:42;;;;;;;11.85;10.65;;;21.30;99.90;;;;;;6180981;28;89529;-67
2022/11/08 04:42:45;;;;;;;11.43;10.27;;;21.30;99.90;;;;;;6179339;28;89228;-67
2022/11/08 04:45:47;;;;;;;12.38;10.88;;;21.30;99.90;;;;;;6180647;28;90037;-67
2022/11/08 04:48:51;;;;;;;12.20;10.50;;;21.30;99.90;;;;;;6182963;28;89081;-67
2022/11/08 04:51:53;;;;;;;11.00;9.90;;;21.30;99.90;;;;;;6181107;28;89024;-67
2022/11/08 04:54:55;;;;;;;11.95;10.52;;;21.40;99.90;;;;;;6182033;28;89261;-67
2022/11/08 04:57:59;;;;;;;10.73;9.73;;;21.30;99.90;;;;;;6180964;28;88570;-67
2022/11/08 05:01:02;;;;;;;10.88;9.80;;;21.40;99.90;;;;;;6180932;28;89337;-67
2022/11/08 05:04:04;;;;;;;11.27;10.07;;;21.40;99.90;;;;;;6180584;28;88381;-67
2022/11/08 05:07:06;;;;;;;10.35;9.32;;;21.40;99.90;;;;;;6181926;28;88278;-67
2022/11/08 05:10:08;;;;;;;11.07;9.93;;;21.40;99.90;;;;;;6183016;28;89227;-67
2022/11/08 05:13:12;;;;;;;10.20;9.20;;;21.40;99.90;;;;;;6176692;28;89333;-67
2022/11/08 05:16:16;;;;;;;10.82;9.73;;;21.40;99.90;;;;;;6179213;28;88930;-67
2022/11/08 05:23:22;;;;;;;10.90;9.80;;;21.40;99.90;;;;;;6168698;28;87995;-68
2022/11/08 05:26:00;;;;;;;10.43;9.43;;;21.50;99.90;;;;;;6181739;28;88167;-67
2022/11/08 05:29:04;;;;;;;10.23;9.10;;;21.50;99.90;;;;;;6181323;28;88299;-65
2022/11/08 05:32:06;;;;;;;10.70;9.60;;;21.50;99.90;;;;;;6170674;28;89104;-65
2022/11/08 05:35:08;;;;;;;10.23;9.20;;;21.50;99.90;;;;;;6181084;28;89290;-66
2022/11/08 05:38:10;;;;;;;10.35;9.35;;;21.50;99.90;;;;;;6181592;28;88422;-65
2022/11/08 05:41:14;;;;;;;10.07;9.07;;;21.50;99.90;;;;;;6182237;28;89172;-65
2022/11/08 05:44:18;;;;;;;10.60;9.50;;;21.60;99.90;;;;;;6178380;28;89303;-65
2022/11/08 05:47:20;;;;;;;9.68;8.77;;;21.60;99.90;;;;;;6181022;28;88979;-66
2022/11/08 05:50:22;;;;;;;9.30;8.40;;;21.60;99.90;;;;;;6179335;28;89260;-65
2022/11/08 05:53:24;;;;;;;9.50;8.60;;;21.60;99.90;;;;;;6180383;28;89265;-65
2022/11/08 05:56:26;;;;;;;9.52;8.57;;;21.60;99.90;;;;;;6180690;28;88243;-66
2022/11/08 05:59:29;;;;;;;9.60;8.60;;;21.60;99.90;;;;;;6180651;28;89101;-65
2022/11/08 06:02:32;;;;;;;9.40;8.35;;;21.60;99.90;;;;;;6180708;28;89163;-65
2022/11/08 06:05:35;;;;;;;9.43;8.38;;;21.60;99.90;;;;;;6182165;28;88057;-65
2022/11/08 06:08:37;;;;;;;8.68;7.78;;;21.60;99.90;;;;;;6181339;28;89700;-65
2022/11/08 06:11:39;;;;;;;8.77;7.90;;;21.60;99.90;;;;;;6181145;28;89189;-65
2022/11/08 06:14:43;;;;;;;9.18;8.25;;;21.60;99.90;;;;;;6181632;28;89067;-65
2022/11/08 06:17:45;;;;;;;9.10;8.18;;;21.70;99.90;;;;;;6180480;28;90339;-65
2022/11/08 06:20:47;;;;;;;8.85;8.00;;;21.70;99.90;;;;;;6180158;28;89381;-65
2022/11/08 06:23:53;;;;;;;9.30;8.32;;;21.60;99.90;;;;;;6179115;28;89143;-65
2022/11/08 06:26:55;;;;;;;8.68;7.88;;;21.70;99.90;;;;;;6179916;28;89204;-66
2022/11/08 06:29:58;;;;;;;8.80;7.90;;;21.70;99.90;;;;;;6180134;28;89556;-65
2022/11/08 06:33:00;;;;;;;8.40;7.50;;;21.70;99.90;;;;;;6178001;28;89156;-65
2022/11/08 06:36:02;;;;;;;8.70;7.80;;;21.70;99.90;;;;;;6179308;28;89150;-66
2022/11/08 06:39:05;;;;;;;8.70;7.43;;;21.70;99.90;;;;;;6181911;28;88314;-65
2022/11/08 06:42:07;;;;;;;8.13;7.32;;;21.70;99.90;;;;;;6180859;28;89644;-65
2022/11/08 06:45:11;;;;;;;7.85;7.05;;;21.70;99.90;;;;;;6178490;28;89237;-65
2022/11/08 06:48:13;;;;;;;8.30;7.50;;;21.70;99.90;;;;;;6178560;28;90111;-66
2022/11/08 06:51:15;;;;;;;8.32;7.35;;;21.80;99.90;;;;;;6176794;28;89575;-65
2022/11/08 06:54:17;;;;;;;8.60;7.65;;;21.80;99.90;;;;;;6179444;28;88207;-66
2022/11/08 06:57:19;;;;;;;8.02;7.05;;;21.90;99.90;;;;;;6178992;28;89262;-66
2022/11/08 07:00:24;;;;;;;8.77;7.57;;;22.00;99.90;;;;;;6183804;28;88939;-65
2022/11/08 07:03:26;;;;;;;8.00;7.20;;;22.00;99.90;;;;;;6184507;28;89306;-66
2022/11/08 07:06:28;;;;;;;8.07;7.05;;;22.00;99.90;;;;;;6184946;28;89722;-65
2022/11/08 07:09:30;;;;;;;7.60;6.80;;;22.10;99.90;;;;;;6184239;28;87961;-66
2022/11/08 07:12:32;;;;;;;8.00;7.00;;;22.00;99.90;;;;;;6183417;28;89184;-66
2022/11/08 07:15:36;;;;;;;7.75;6.88;;;22.10;99.90;;;;;;6184792;28;89327;-65
2022/11/08 07:18:38;;;;;;;7.32;6.63;;;22.00;99.90;;;;;;6177589;28;90146;-65
2022/11/08 07:21:40;;;;;;;7.25;6.47;;;22.00;99.90;;;;;;6184500;28;89344;-66
2022/11/08 07:24:42;;;;;;;7.22;6.53;;;22.00;99.90;;;;;;6183045;28;89790;-66
2022/11/08 07:27:44;;;;;;;7.22;6.53;;;22.00;99.90;;;;;;6183429;28;89383;-66
2022/11/08 07:30:48;;;;;;;6.70;6.03;;;22.00;99.90;;;;;;6183536;28;89057;-66
2022/11/08 07:33:51;;;;;;;7.13;6.43;;;22.00;99.90;;;;;;6183763;28;89103;-66
2022/11/08 07:36:53;;;;;;;7.88;6.85;;;22.00;99.90;;;;;;6184658;28;89117;-65
2022/11/08 07:39:55;;;;;;;6.45;5.85;;;22.00;99.90;;;;;;6185215;28;87334;-66
2022/11/08 07:42:58;;;;;;;6.93;6.22;;;22.00;99.90;;;;;;6182421;28;90063;-66
2022/11/08 07:46:02;;;;;;;7.07;6.38;;;22.00;99.90;;;;;;6183004;28;89109;-65
2022/11/08 07:49:04;;;;;;;6.45;5.85;;;22.00;99.90;;;;;;6182906;28;90088;-66
2022/11/08 07:52:06;;;;;;;7.07;5.85;;;22.00;99.90;;;;;;6183607;28;89208;-66
2022/11/08 07:55:08;;;;;;;6.85;6.03;;;22.00;99.90;;;;;;6184624;28;89072;-66
2022/11/08 07:58:11;;;;;;;6.90;6.20;;;22.10;99.90;;;;;;6182876;28;89155;-66
2022/11/08 08:01:14;;;;;;;6.22;5.63;;;22.10;99.90;;;;;;6182468;28;88990;-66
2022/11/08 08:04:16;;;;;;;6.10;5.55;;;22.00;99.90;;;;;;6180068;28;89187;-66
2022/11/08 08:07:18;;;;;;;6.20;5.60;;;22.00;99.90;;;;;;6182888;28;88152;-66
2022/11/08 08:10:21;;;;;;;6.20;5.60;;;22.10;99.90;;;;;;6179346;28;88174;-65
2022/11/08 08:13:23;;;;;;;6.40;5.80;;;22.00;99.90;;;;;;6182820;28;89349;-65
2022/11/08 08:16:27;;;;;;;6.57;5.82;;;22.00;99.90;;;;;;6183297;28;89185;-65
2022/11/08 08:19:29;;;;;;;6.18;5.65;;;22.10;99.90;;;;;;6182365;28;90451;-65
2022/11/08 08:22:31;;;;;;;5.80;5.30;;;22.10;99.90;;;;;;6180553;28;89263;-65
2022/11/08 08:25:33;;;;;;;6.05;5.45;;;22.10;99.90;;;;;;6184500;28;89271;-66
2022/11/08 08:28:35;;;;;;;7.53;6.30;;;22.10;99.90;;;;;;6183803;28;88149;-66
2022/11/08 08:31:38;;;;;;;6.07;5.32;;;22.10;99.90;;;;;;6179152;28;89122;-66
2022/11/08 08:34:40;;;;;;;5.72;5.22;;;22.10;99.90;;;;;;6175504;28;89219;-65
2022/11/08 08:37:43;;;;;;;5.57;5.07;;;22.10;99.90;;;;;;6183623;28;88195;-65
2022/11/08 08:40:46;;;;;;;6.55;5.38;;;22.10;99.90;;;;;;6182017;28;88590;-66
2022/11/08 08:43:48;;;;;;;5.93;5.43;;;22.10;99.90;;;;;;6183863;28;88968;-66
2022/11/08 08:46:55;;;;;;;5.90;5.30;;;22.20;99.90;;;;;;6179598;28;89025;-68
2022/11/08 08:49:57;;;;;;;6.65;5.72;;;22.20;99.90;;;;;;6177038;28;89990;-68
2022/11/08 08:53:00;;;;;;;6.15;5.55;;;22.20;99.90;;;;;;6185132;28;89051;-67
2022/11/08 08:56:04;;;;;;;5.78;5.20;;;22.20;99.90;;;;;;6182003;28;89260;-67
2022/11/08 08:59:07;;;;;;;5.72;5.07;;;22.20;99.90;;;;;;6182099;28;89052;-67
2022/11/08 09:02:11;;;;;;;5.93;4.60;;;22.20;99.90;;;;;;6183170;28;89671;-67
2022/11/08 09:05:14;;;;;;;5.15;4.65;;;22.20;99.90;;;;;;6181239;28;88646;-67
2022/11/08 09:08:16;;;;;;;5.63;5.03;;;22.20;99.90;;;;;;6180931;28;89447;-67
2022/11/08 09:11:18;;;;;;;6.10;5.25;;;22.20;99.90;;;;;;6181325;28;88596;-67
2022/11/08 09:14:20;;;;;;;7.13;4.85;;;22.20;99.90;;;;;;6181490;28;89140;-68
2022/11/08 09:17:24;;;;;;;7.22;5.32;;;22.20;99.90;;;;;;6169678;28;89118;-68
2022/11/08 09:20:26;;;;;;;5.95;5.25;;;22.20;99.90;;;;;;6180140;28;90104;-68
2022/11/08 09:23:28;;;;;;;5.25;4.75;;;22.20;99.90;;;;;;6183547;28;89361;-65
2022/11/08 09:26:30;;;;;;;5.60;4.85;;;22.20;99.90;;;;;;6181693;28;88017;-66
2022/11/08 09:29:33;;;;;;;5.57;4.43;;;22.20;99.90;;;;;;6182014;28;89318;-65
2022/11/08 09:32:37;;;;;;;5.10;4.60;;;22.30;99.90;;;;;;6182075;28;89251;-65
2022/11/08 09:35:39;;;;;;;6.35;5.00;;;22.30;99.90;;;;;;6181508;28;89368;-65
2022/11/08 09:38:41;;;;;;;5.47;4.75;;;22.30;99.90;;;;;;6180968;28;89546;-65
2022/11/08 09:42:14;;;;;;;5.18;4.70;;;22.30;99.90;;;;;;6180974;28;88453;-65
2022/11/08 09:45:24;;;;;;;5.03;4.43;;;22.30;99.90;;;;;;6176289;28;89250;-68
2022/11/08 09:48:32;;;;;;;5.38;4.80;;;22.30;99.90;;;;;;6179564;28;89503;-67
2022/11/08 09:51:35;;;;;;;5.07;4.57;;;22.30;99.90;;;;;;6179161;28;90160;-68
2022/11/08 09:54:42;;;;;;;4.68;4.28;;;22.40;99.90;;;;;;6181779;28;89271;-68
2022/11/08 09:57:54;;;;;;;4.97;4.47;;;22.30;99.90;;;;;;6177572;28;89394;-68
2022/11/08 10:00:56;;;;;;;5.22;4.45;;;22.30;99.90;;;;;;6175273;28;89141;-68
2022/11/08 10:04:05;;;;;;;4.35;3.95;;;22.40;99.90;;;;;;6179888;28;89371;-67
2022/11/08 10:07:24;;;;;;;5.00;4.50;;;22.30;99.90;;;;;;6176089;28;89375;-68
2022/11/08 10:10:58;;;;;;;5.43;4.40;;;22.30;99.90;;;;;;6177598;28;89163;-68
2022/11/08 10:14:12;;;;;;;4.75;4.30;;;22.40;99.90;;;;;;6176399;28;88518;-67
2022/11/08 10:17:34;;;;;;;6.55;4.60;;;22.40;99.90;;;;;;6180321;28;89121;-67
2022/11/08 10:20:51;;;;;;;4.95;4.35;;;22.40;99.90;;;;;;6179655;28;89148;-68
2022/11/08 10:24:00;;;;;;;6.45;4.88;;;22.40;99.90;;;;;;6179699;28;90534;-68
2022/11/08 10:27:04;;;;;;;5.13;4.30;;;22.40;99.90;;;;;;6179911;28;89118;-67
2022/11/08 10:30:13;;;;;;;4.10;3.80;;;22.50;99.90;;;;;;6179226;28;89299;-67
2022/11/08 10:33:20;;;;;;;4.40;3.78;;;22.50;99.90;;;;;;6167622;28;88126;-68
2022/11/08 10:36:27;;;;;;;6.20;4.40;;;22.40;99.90;;;;;;6181628;28;89179;-67
2022/11/08 10:39:31;;;;;;;5.32;4.13;;;22.40;99.90;;;;;;6179802;28;89536;-67
2022/11/08 10:42:42;;;;;;;7.85;5.10;;;22.50;99.90;;;;;;6178706;28;89203;-68
2022/11/08 10:45:44;;;;;;;4.93;4.35;;;22.40;99.90;;;;;;6180243;28;88920;-67
2022/11/08 10:48:46;;;;;;;4.47;3.80;;;22.50;99.90;;;;;;6180234;28;89477;-67
2022/11/08 10:51:53;;;;;;;4.93;3.80;;;22.50;99.90;;;;;;6179510;28;89189;-67
2022/11/08 10:54:56;;;;;;;3.33;3.03;;;22.50;99.90;;;;;;6179834;28;90041;-65
2022/11/08 10:57:59;;;;;;;4.28;2.65;;;22.40;96.40;;;;;;6180160;28;89400;-67
2022/11/08 11:01:04;;;;;;;4.65;2.80;;;22.30;94.00;;;;;;6179200;28;89152;-68
2022/11/08 11:04:26;;;;;;;2.80;2.50;;;22.40;94.10;;;;;;6179586;28;89023;-68
2022/11/08 11:07:33;;;;;;;3.72;2.80;;;22.30;94.80;;;;;;6179478;28;89325;-67
2022/11/08 11:10:37;;;;;;;4.32;2.90;;;22.30;95.20;;;;;;6180260;28;89113;-67
2022/11/08 11:13:39;;;;;;;4.47;3.03;;;22.30;95.80;;;;;;6178674;28;88663;-67
2022/11/08 11:16:54;;;;;;;5.47;2.60;;;22.40;96.10;;;;;;6178765;28;88547;-67
2022/11/08 11:19:57;;;;;;;4.75;2.67;;;22.40;96.50;;;;;;6179902;28;89235;-67
2022/11/08 11:23:01;;;;;;;3.35;2.60;;;22.40;96.70;;;;;;6179913;28;89322;-67
2022/11/08 11:26:04;;;;;;;2.50;2.30;;;22.40;96.80;;;;;;6179311;28;90448;-67
2022/11/08 11:29:18;;;;;;;3.38;2.70;;;22.40;97.10;;;;;;6178574;28;89232;-67
2022/11/08 11:32:32;;;;;;;2.60;2.25;;;22.40;97.30;;;;;;6181044;28;89574;-67
2022/11/08 11:35:42;;;;;;;3.15;2.58;;;22.40;97.50;;;;;;6179787;28;89554;-67
2022/11/08 11:38:52;;;;;;;3.88;2.17;;;22.40;97.70;;;;;;6179863;28;89189;-67
2022/11/08 11:42:02;;;;;;;4.07;2.60;;;22.40;97.90;;;;;;6183962;28;89349;-67
2022/11/08 11:45:16;;;;;;;3.88;2.35;;;22.40;98.10;;;;;;6186782;28;88839;-67
2022/11/08 11:48:21;;;;;;;2.75;2.42;;;22.40;98.30;;;;;;6184752;28;88600;-67
2022/11/08 11:51:27;;;;;;;2.75;2.20;;;22.40;98.50;;;;;;6183174;28;89276;-67
2022/11/08 11:54:33;;;;;;;2.47;2.20;;;22.40;98.70;;;;;;6183116;28;89497;-67
2022/11/08 11:57:43;;;;;;;3.95;2.17;;;22.40;98.80;;;;;;6181870;28;90025;-67
2022/11/08 12:00:54;;;;;;;2.53;2.22;;;22.40;99.00;;;;;;6182594;28;88238;-67
2022/11/08 12:04:20;;;;;;;3.45;2.63;;;22.40;99.20;;;;;;6182803;28;89273;-68
2022/11/08 12:07:26;;;;;;;2.40;2.20;;;22.40;99.30;;;;;;6179448;28;89297;-67
2022/11/08 12:10:41;;;;;;;3.15;2.33;;;22.40;99.40;;;;;;6183137;28;89208;-67
2022/11/08 12:13:57;;;;;;;3.13;2.42;;;22.40;99.50;;;;;;6183157;28;89199;-67
2022/11/08 12:17:15;;;;;;;2.50;2.30;;;22.40;99.60;;;;;;6176467;28;89071;-67
2022/11/08 12:20:34;;;;;;;3.08;2.33;;;22.40;99.80;;;;;;6183033;28;88289;-68
2022/11/08 12:24:09;;;;;;;2.70;2.30;;;22.40;99.90;;;;;;6182056;28;89587;-67
2022/11/08 12:27:26;;;;;;;2.50;2.22;;;22.40;99.90;;;;;;6172416;28;89260;-67
2022/11/08 12:30:36;;;;;;;2.75;2.22;;;22.40;99.90;;;;;;6181544;28;90080;-67
2022/11/08 12:33:50;;;;;;;2.72;2.30;;;22.50;99.90;;;;;;6181844;28;89241;-67
2022/11/08 12:37:03;;;;;;;2.55;2.30;;;22.40;99.90;;;;;;6181733;28;89226;-67
2022/11/08 12:40:17;;;;;;;2.60;2.28;;;22.50;99.90;;;;;;6182559;28;89220;-67
2022/11/08 12:43:34;;;;;;;2.40;2.20;;;22.50;99.90;;;;;;6180580;28;88148;-67
2022/11/08 12:46:49;;;;;;;2.40;2.20;;;22.40;99.90;;;;;;6182428;28;89147;-67
2022/11/08 12:50:02;;;;;;;2.65;2.22;;;22.40;99.90;;;;;;6182011;28;89156;-67
2022/11/08 12:53:29;;;;;;;2.65;2.28;;;22.40;99.90;;;;;;6182820;28;89053;-67
2022/11/08 12:56:37;;;;;;;2.70;2.20;;;22.50;99.90;;;;;;6180857;28;89228;-67
2022/11/08 12:59:44;;;;;;;2.70;2.20;;;22.50;99.90;;;;;;6179626;28;87859;-67
2022/11/08 13:02:58;;;;;;;2.33;2.13;;;22.50;99.90;;;;;;6180385;28;90095;-67
2022/11/08 13:06:08;;;;;;;2.22;2.03;;;22.50;99.90;;;;;;6182396;28;89058;-67
2022/11/08 13:09:19;;;;;;;2.70;2.13;;;22.40;99.90;;;;;;6181453;28;89025;-67
2022/11/08 13:12:32;;;;;;;2.30;2.10;;;22.50;99.90;;;;;;6181870;28;89593;-67
2022/11/08 13:15:35;;;;;;;2.70;2.00;;;22.50;99.90;;;;;;6181340;28;89209;-67
2022/11/08 13:18:44;;;;;;;2.30;2.00;;;22.40;99.90;;;;;;6180688;28;89371;-67
2022/11/08 13:21:46;;;;;;;2.10;1.90;;;22.40;99.90;;;;;;6180885;28;89218;-67
2022/11/08 13:24:48;;;;;;;2.20;2.00;;;22.50;99.90;;;;;;6181197;28;88473;-67
2022/11/08 13:27:50;;;;;;;2.58;2.10;;;22.50;99.90;;;;;;6181620;28;89314;-67
2022/11/08 13:31:01;;;;;;;2.42;2.08;;;22.50;99.90;;;;;;6178627;28;89152;-67
2022/11/08 13:34:33;;;;;;;2.78;2.13;;;22.50;99.90;;;;;;6178569;28;90223;-67
2022/11/08 13:37:54;;;;;;;2.20;2.00;;;22.50;99.90;;;;;;6170051;28;89165;-67
2022/11/08 13:41:13;;;;;;;2.35;2.15;;;22.40;99.90;;;;;;6172905;28;89681;-67
2022/11/08 13:44:56;;;;;;;2.58;2.25;;;22.50;99.90;;;;;;6170513;28;89136;-67
2022/11/08 13:48:02;;;;;;;2.75;2.10;;;22.50;99.90;;;;;;6179249;28;89338;-67
2022/11/08 13:51:29;;;;;;;5.60;2.83;;;22.40;99.90;;;;;;6179398;28;89104;-67
2022/11/08 13:54:50;;;;;;;3.30;2.67;;;22.50;99.90;;;;;;6180341;28;89004;-67
2022/11/08 13:57:58;;;;;;;3.17;2.88;;;22.40;99.80;;;;;;6168214;28;88495;-67
2022/11/08 14:01:01;;;;;;;3.70;3.08;;;22.50;98.10;;;;;;6180014;28;88028;-67
2022/11/08 14:04:24;;;;;;;3.95;3.63;;;22.50;96.00;;;;;;6181230;28;89815;-67
2022/11/08 14:07:32;;;;;;;3.42;3.13;;;22.50;94.40;;;;;;6180003;28;90015;-67
2022/11/08 14:10:40;;;;;;;3.25;2.95;;;22.40;93.60;;;;;;6181163;28;89115;-67
2022/11/08 14:14:02;;;;;;;3.42;3.13;;;22.40;93.60;;;;;;6180949;28;90159;-67
2022/11/08 14:17:25;;;;;;;3.20;2.90;;;22.40;93.70;;;;;;6180838;28;89250;-67
2022/11/08 14:20:33;;;;;;;4.57;3.38;;;22.40;93.60;;;;;;6180146;28;89264;-67
2022/11/08 14:23:39;;;;;;;3.40;3.10;;;22.40;93.50;;;;;;6180995;28;89100;-67
2022/11/08 14:26:46;;;;;;;3.38;3.08;;;22.30;93.40;;;;;;6180666;28;88075;-67
2022/11/08 14:29:58;;;;;;;3.55;3.25;;;22.40;93.30;;;;;;6180445;28;87235;-67
2022/11/08 14:33:15;;;;;;;3.67;3.33;;;22.30;93.20;;;;;;6180104;28;89053;-67
2022/11/08 14:36:20;;;;;;;4.93;3.60;;;22.40;93.10;;;;;;6180214;28;89271;-67
2022/11/08 14:39:27;;;;;;;4.75;3.35;;;22.30;93.20;;;;;;6180466;28;90244;-67
2022/11/08 14:42:30;;;;;;;5.10;3.63;;;22.40;93.10;;;;;;6179101;28;87949;-69
2022/11/08 14:45:32;;;;;;;3.85;3.20;;;22.40;93.10;;;;;;6181202;28;89137;-68
2022/11/08 14:48:34;;;;;;;3.38;3.00;;;22.40;93.00;;;;;;6180130;28;89290;-68
2022/11/08 14:51:37;;;;;;;4.05;3.13;;;22.40;92.60;;;;;;6179703;28;88825;-68
2022/11/08 14:54:41;;;;;;;4.88;3.28;;;22.40;92.50;;;;;;6180135;28;88052;-68
2022/11/08 14:57:44;;;;;;;3.50;3.15;;;22.40;92.60;;;;;;6179830;28;88195;-68
2022/11/08 15:00:49;;;;;;;3.65;2.95;;;22.40;92.90;;;;;;6180112;28;88903;-68
2022/11/08 15:03:55;;;;;;;3.58;2.90;;;22.40;93.10;;;;;;6177335;28;87995;-68
2022/11/08 15:06:59;;;;;;;4.32;2.90;;;22.40;93.30;;;;;;6179505;28;89363;-69
2022/11/08 15:10:08;;;;;;;4.80;3.20;;;22.40;93.60;;;;;;6178727;28;89875;-68
2022/11/08 15:13:11;;;;;;;4.93;3.28;;;22.40;94.20;;;;;;6179446;28;91504;-68
2022/11/08 15:16:14;;;;;;;4.95;3.40;;;22.40;94.00;;;;;;6180117;28;88919;-68
2022/11/08 15:19:28;;;;;;;6.40;3.55;;;22.40;94.20;;;;;;6179702;28;88175;-68
2022/11/08 15:22:33;;;;;;;7.78;3.67;;;22.40;94.40;;;;;;6182562;28;89317;-68
2022/11/08 15:25:37;;;;;;;7.60;4.00;;;22.50;94.60;;;;;;6183181;28;88364;-68
2022/11/08 15:28:40;;;;;;;6.25;3.47;;;22.40;94.70;;;;;;6182395;28;89083;-68
2022/11/08 15:31:47;;;;;;;5.82;3.45;;;22.40;94.80;;;;;;6184647;28;87298;-68
2022/11/08 15:34:54;;;;;;;7.60;3.80;;;22.40;94.90;;;;;;6181561;28;89270;-69
2022/11/08 15:38:05;;;;;;;8.75;3.90;;;22.50;95.10;;;;;;6184394;28;89070;-68
2022/11/08 15:41:31;;;;;;;10.13;4.50;;;22.50;95.20;;;;;;6183606;28;89262;-68
2022/11/08 15:44:34;;;;;;;14.43;5.32;;;22.50;95.40;;;;;;6182408;28;89423;-68
2022/11/08 15:47:46;;;;;;;14.77;5.70;;;22.40;96.30;;;;;;6175859;28;87779;-68
2022/11/08 15:50:49;;;;;;;14.45;5.97;;;22.40;96.60;;;;;;6182938;28;89928;-68
2022/11/08 15:53:53;;;;;;;13.00;5.10;;;22.40;96.70;;;;;;6182453;28;89145;-67
2022/11/08 15:56:57;;;;;;;11.15;4.90;;;22.40;96.70;;;;;;6183887;28;87212;-67
2022/11/08 15:59:59;;;;;;;11.43;4.88;;;22.40;96.70;;;;;;6152419;28;89707;-67
2022/11/08 16:03:03;;;;;;;11.27;5.10;;;22.40;96.60;;;;;;6181237;28;87036;-67
2022/11/08 16:06:06;;;;;;;11.32;5.10;;;22.40;96.90;;;;;;6182036;28;89071;-68
2022/11/08 16:09:10;;;;;;;11.30;5.05;;;22.40;97.10;;;;;;6180332;28;89220;-67
2022/11/08 16:12:17;;;;;;;10.63;4.63;;;22.50;97.00;;;;;;6183040;28;88148;-68
2022/11/08 16:15:23;;;;;;;10.77;5.07;;;22.40;97.20;;;;;;6182730;28;89178;-68
2022/11/08 16:18:26;;;;;;;11.70;4.50;;;22.50;97.20;;;;;;6182505;28;88460;-67
2022/11/08 16:21:29;;;;;;;10.65;4.95;;;22.50;97.40;;;;;;6177399;28;88219;-68
2022/11/08 16:24:33;;;;;;;8.65;4.28;;;22.50;97.40;;;;;;6182324;28;89099;-67